Time;durP1;ratioP1;P1;durP2;ratioP2;P2;SDS_P1;SDS_P2;PMS_P1;PMS_P2;Temp;Humidity;BMP_temperature;BMP_pressure;BME280_temperature;BME280_humidity;BME280_pressure;Samples;Min_cycle;Max_cycle;Signal;HPM_P1;HPM_P2
2023/06/21 00:00:24;;;;;;;27.55;24.38;;;;;;;;;;6206800;23;20485;-52
2023/06/21 00:03:10;;;;;;;28.92;25.42;;;;;;;;;;6207943;23;20017;-56
2023/06/21 00:06:05;;;;;;;29.50;25.60;;;;;;;;;;6207903;23;20033;-52
2023/06/21 00:08:58;;;;;;;31.42;26.73;;;;;;;;;;6204729;23;20025;-49
2023/06/21 00:11:52;;;;;;;33.90;27.92;;;;;;;;;;6208800;23;20029;-49
2023/06/21 00:14:39;;;;;;;29.17;26.08;;;;;;;;;;6204751;23;20028;-48
2023/06/21 00:17:32;;;;;;;31.08;27.20;;;;;;;;;;6206713;23;20040;-54
2023/06/21 00:20:20;;;;;;;34.13;29.40;;;;;;;;;;6204725;23;20025;-49
2023/06/21 00:23:14;;;;;;;31.83;28.45;;;;;;;;;;6206365;23;20025;-54
2023/06/21 00:26:01;;;;;;;38.88;30.20;;;;;;;;;;6206501;23;20091;-54
2023/06/21 00:28:54;;;;;;;31.90;28.50;;;;;;;;;;6206087;23;20025;-50
2023/06/21 00:31:48;;;;;;;34.13;30.17;;;;;;;;;;6206641;23;20020;-50
2023/06/21 00:34:44;;;;;;;35.45;28.60;;;;;;;;;;6205727;23;20611;-53
2023/06/21 00:37:30;;;;;;;27.52;24.63;;;;;;;;;;6205858;23;20106;-53
2023/06/21 00:40:25;;;;;;;35.50;29.48;;;;;;;;;;6205794;23;20032;-59
2023/06/21 00:43:11;;;;;;;34.97;29.98;;;;;;;;;;6206796;23;20024;-55
2023/06/21 00:46:06;;;;;;;40.45;31.90;;;;;;;;;;6207788;23;20021;-53
2023/06/21 00:49:00;;;;;;;42.00;32.78;;;;;;;;;;6205516;23;20029;-55
2023/06/21 00:51:47;;;;;;;40.33;34.28;;;;;;;;;;6202773;23;20472;-52
2023/06/21 00:54:41;;;;;;;36.35;30.65;;;;;;;;;;6207051;23;20020;-50
2023/06/21 00:57:28;;;;;;;39.50;33.45;;;;;;;;;;6206024;23;20083;-50
2023/06/21 01:00:22;;;;;;;32.75;28.88;;;;;;;;;;6206498;23;20025;-51
2023/06/21 01:03:09;;;;;;;36.50;31.33;;;;;;;;;;6206443;23;20027;-50
2023/06/21 01:06:22;;;;;;;39.20;32.72;;;;;;;;;;6205442;23;20028;-51
2023/06/21 01:09:28;;;;;;;37.22;32.50;;;;;;;;;;6204949;23;20500;-51
2023/06/21 01:12:35;;;;;;;35.97;31.52;;;;;;;;;;6206539;23;20020;-51
2023/06/21 01:15:23;;;;;;;;;;;;;;;;;;6207372;23;20028;-57
2023/06/21 01:18:18;;;;;;;35.10;29.63;;;;;;;;;;6206404;23;20117;-47
2023/06/21 01:21:06;;;;;;;34.38;28.92;;;;;;;;;;6206402;23;20024;-51
2023/06/21 01:24:14;;;;;;;29.70;26.48;;;;;;;;;;6206630;23;20021;-47
2023/06/21 01:27:07;;;;;;;31.48;27.15;;;;;;;;;;6204666;23;20074;-49
2023/06/21 01:30:02;;;;;;;31.23;26.98;;;;;;;;;;6205940;23;20031;-46
2023/06/21 01:32:54;;;;;;;31.95;27.33;;;;;;;;;;6206011;23;20024;-58
2023/06/21 01:35:42;;;;;;;25.73;23.08;;;;;;;;;;6206430;23;20029;-59
2023/06/21 01:38:30;;;;;;;25.90;22.45;;;;;;;;;;6204074;23;20086;-62
2023/06/21 01:41:25;;;;;;;25.17;22.58;;;;;;;;;;6205242;23;20095;-63
2023/06/21 01:44:13;;;;;;;23.38;20.65;;;;;;;;;;6204493;23;20028;-63
2023/06/21 01:47:05;;;;;;;24.00;21.30;;;;;;;;;;6205679;23;20528;-63
2023/06/21 01:49:59;;;;;;;25.75;21.25;;;;;;;;;;6204677;23;20025;-63
2023/06/21 01:52:53;;;;;;;22.92;19.48;;;;;;;;;;6206414;23;20024;-57
2023/06/21 01:55:49;;;;;;;23.42;20.55;;;;;;;;;;6206433;23;20086;-62
2023/06/21 01:58:45;;;;;;;21.50;18.83;;;;;;;;;;6205175;23;20028;-63
2023/06/21 02:01:40;;;;;;;23.50;19.65;;;;;;;;;;6205147;23;20021;-63
2023/06/21 02:04:29;;;;;;;22.50;20.10;;;;;;;;;;6206812;23;20412;-62
2023/06/21 02:07:36;;;;;;;22.25;19.95;;;;;;;;;;6205517;23;20024;-63
2023/06/21 02:10:31;;;;;;;32.35;19.58;;;;;;;;;;6172780;23;20551;-59
2023/06/21 02:13:26;;;;;;;23.65;21.17;;;;;;;;;;6176089;23;20079;-59
2023/06/21 02:16:12;;;;;;;24.25;20.73;;;;;;;;;;6175198;23;20317;-59
2023/06/21 02:19:05;;;;;;;22.85;18.90;;;;;;;;;;6174383;23;20024;-58
2023/06/21 02:21:53;;;;;;;20.52;18.42;;;;;;;;;;6175904;23;20033;-59
2023/06/21 02:24:47;;;;;;;19.05;17.02;;;;;;;;;;6176205;23;20017;-59
2023/06/21 02:27:34;;;;;;;24.38;19.40;;;;;;;;;;6177278;23;20056;-59
2023/06/21 02:30:29;;;;;;;21.98;19.50;;;;;;;;;;6176052;23;20028;-58
2023/06/21 02:33:15;;;;;;;20.92;18.73;;;;;;;;;;6175234;23;20028;-58
2023/06/21 02:36:08;;;;;;;23.48;18.60;;;;;;;;;;6175499;23;20402;-60
2023/06/21 02:38:56;;;;;;;19.90;17.80;;;;;;;;;;6176347;23;20079;-56
2023/06/21 02:41:51;;;;;;;22.63;19.40;;;;;;;;;;6177109;23;20072;-57
2023/06/21 02:44:37;;;;;;;21.48;19.17;;;;;;;;;;6174880;23;20021;-57
2023/06/21 02:47:31;;;;;;;22.02;19.13;;;;;;;;;;6173886;23;20620;-58
2023/06/21 02:50:18;;;;;;;26.23;22.70;;;;;;;;;;6175501;23;20751;-51
2023/06/21 02:53:11;;;;;;;22.00;19.70;;;;;;;;;;6175947;23;20396;-51
2023/06/21 02:55:59;;;;;;;20.85;18.67;;;;;;;;;;6175178;23;20025;-55
2023/06/21 02:58:54;;;;;;;22.38;18.10;;;;;;;;;;6174927;23;20497;-52
2023/06/21 03:01:40;;;;;;;21.52;18.30;;;;;;;;;;6174296;23;20350;-49
2023/06/21 03:04:34;;;;;;;21.58;19.27;;;;;;;;;;6176274;23;20021;-53
2023/06/21 03:07:23;;;;;;;20.95;18.10;;;;;;;;;;6174939;23;20033;-50
2023/06/21 03:10:21;;;;;;;20.20;17.98;;;;;;;;;;6204115;23;20028;-48
2023/06/21 03:13:09;;;;;;;19.58;17.45;;;;;;;;;;6207535;23;20075;-49
2023/06/21 03:16:02;;;;;;;21.50;17.05;;;;;;;;;;6207069;23;20389;-51
2023/06/21 03:18:57;;;;;;;14.75;13.23;;;;;;;;;;6208119;23;20021;-49
2023/06/21 03:21:45;;;;;;;15.15;13.55;;;;;;;;;;6206539;23;20025;-49
2023/06/21 03:24:39;;;;;;;14.73;13.05;;;;;;;;;;6206189;23;20017;-51
2023/06/21 03:27:27;;;;;;;18.70;15.10;;;;;;;;;;6204540;23;20024;-61
2023/06/21 03:30:21;;;;;;;16.85;15.15;;;;;;;;;;6207537;23;20024;-63
2023/06/21 03:33:07;;;;;;;15.38;13.80;;;;;;;;;;6206627;23;20087;-63
2023/06/21 03:36:03;;;;;;;20.20;14.27;;;;;;;;;;6205905;23;20079;-63
2023/06/21 03:38:48;;;;;;;16.73;15.02;;;;;;;;;;6205770;23;20027;-63
2023/06/21 03:41:42;;;;;;;16.45;14.45;;;;;;;;;;6206910;23;20024;-49
2023/06/21 03:44:29;;;;;;;17.60;15.80;;;;;;;;;;6206121;23;20071;-53
2023/06/21 03:47:23;;;;;;;16.88;14.80;;;;;;;;;;6206950;23;20024;-52
2023/06/21 03:50:11;;;;;;;15.50;13.90;;;;;;;;;;6207481;23;20595;-54
2023/06/21 03:53:05;;;;;;;15.55;13.95;;;;;;;;;;6207262;23;20397;-50
2023/06/21 03:55:58;;;;;;;18.70;16.52;;;;;;;;;;6206533;23;20021;-53
2023/06/21 03:58:46;;;;;;;16.95;15.25;;;;;;;;;;6205609;23;20025;-53
2023/06/21 04:01:39;;;;;;;15.45;13.93;;;;;;;;;;6205195;23;20029;-54
2023/06/21 04:04:27;;;;;;;17.90;14.27;;;;;;;;;;6203479;23;20024;-53
2023/06/21 04:07:23;;;;;;;14.27;12.88;;;;;;;;;;6208508;23;20025;-54
2023/06/21 04:10:14;;;;;;;14.13;11.75;;;;;;;;;;6177796;23;20021;-54
2023/06/21 04:13:08;;;;;;;14.30;12.52;;;;;;;;;;6175441;23;20501;-51
2023/06/21 04:15:56;;;;;;;17.95;12.88;;;;;;;;;;6178297;23;20489;-47
2023/06/21 04:18:49;;;;;;;13.23;11.93;;;;;;;;;;6179972;23;20028;-59
2023/06/21 04:21:37;;;;;;;15.32;12.30;;;;;;;;;;6177347;23;20466;-50
2023/06/21 04:24:31;;;;;;;13.65;11.93;;;;;;;;;;6176672;23;20087;-49
2023/06/21 04:27:22;;;;;;;14.90;11.77;;;;;;;;;;6177306;23;20097;-51
2023/06/21 04:30:13;;;;;;;13.63;12.00;;;;;;;;;;6175857;23;20033;-49
2023/06/21 04:33:07;;;;;;;14.15;11.68;;;;;;;;;;6177045;23;20021;-53
2023/06/21 04:35:54;;;;;;;17.58;11.23;;;;;;;;;;6175866;23;20362;-49
2023/06/21 04:38:49;;;;;;;13.63;11.85;;;;;;;;;;6176155;23;20354;-46
2023/06/21 04:41:42;;;;;;;13.43;12.02;;;;;;;;;;6175500;23;20036;-63
2023/06/21 04:44:30;;;;;;;14.67;11.10;;;;;;;;;;6174814;23;20028;-62
2023/06/21 04:47:24;;;;;;;16.13;10.63;;;;;;;;;;6175315;23;20017;-64
2023/06/21 04:50:11;;;;;;;13.40;11.10;;;;;;;;;;6176337;23;20032;-63
2023/06/21 04:53:05;;;;;;;13.18;11.50;;;;;;;;;;6178117;23;20021;-63
2023/06/21 04:55:52;;;;;;;14.77;11.50;;;;;;;;;;6178238;23;20133;-49
2023/06/21 04:58:52;;;;;;;12.45;11.00;;;;;;;;;;6176429;23;20021;-60
2023/06/21 05:01:40;;;;;;;12.68;11.38;;;;;;;;;;6175820;23;20028;-60
2023/06/21 05:04:34;;;;;;;13.13;11.32;;;;;;;;;;6175656;23;20533;-59
2023/06/21 05:07:21;;;;;;;14.18;12.18;;;;;;;;;;6173966;23;20021;-60
2023/06/21 05:10:21;;;;;;;13.20;11.13;;;;;;;;;;6174658;23;20036;-60
2023/06/21 05:13:09;;;;;;;11.85;10.68;;;;;;;;;;6174278;23;20025;-59
2023/06/21 05:16:10;;;;;;;11.55;10.45;;;;;;;;;;6176736;23;20021;-64
2023/06/21 05:18:57;;;;;;;12.30;10.93;;;;;;;;;;6177665;23;20025;-51
2023/06/21 05:21:51;;;;;;;11.80;10.60;;;;;;;;;;6175969;23;20390;-51
2023/06/21 05:24:51;;;;;;;12.65;11.38;;;;;;;;;;6175438;23;20026;-54
2023/06/21 05:27:38;;;;;;;12.48;10.63;;;;;;;;;;6175913;23;20021;-52
2023/06/21 05:30:33;;;;;;;13.63;10.75;;;;;;;;;;6172540;23;20389;-49
2023/06/21 05:33:20;;;;;;;13.13;10.18;;;;;;;;;;6173591;23;20524;-50
2023/06/21 05:36:14;;;;;;;12.05;10.20;;;;;;;;;;6176144;23;20059;-52
2023/06/21 05:39:01;;;;;;;13.30;9.80;;;;;;;;;;6176448;23;20087;-54
2023/06/21 05:41:55;;;;;;;11.45;10.25;;;;;;;;;;6171819;23;20029;-52
2023/06/21 05:44:42;;;;;;;11.07;8.70;;;;;;;;;;6178319;23;20021;-50
2023/06/21 05:47:36;;;;;;;11.38;9.23;;;;;;;;;;6176754;23;20021;-53
2023/06/21 05:50:23;;;;;;;12.55;9.77;;;;;;;;;;6177493;23;20028;-54
2023/06/21 05:53:17;;;;;;;11.75;8.70;;;;;;;;;;6176097;23;20021;-63
2023/06/21 05:56:04;;;;;;;13.75;9.32;;;;;;;;;;6174567;23;20056;-53
2023/06/21 05:58:58;;;;;;;9.90;8.45;;;;;;;;;;6176436;23;20025;-52
2023/06/21 06:01:46;;;;;;;12.95;8.63;;;;;;;;;;6176446;23;20092;-52
2023/06/21 06:04:40;;;;;;;9.30;8.25;;;;;;;;;;6174488;23;20028;-49
2023/06/21 06:07:27;;;;;;;11.50;9.57;;;;;;;;;;6176776;23;20024;-52
2023/06/21 06:10:27;;;;;;;10.48;9.48;;;;;;;;;;6204801;23;20020;-52
2023/06/21 06:13:14;;;;;;;9.38;8.18;;;;;;;;;;6205431;23;20029;-60
2023/06/21 06:16:09;;;;;;;10.35;8.48;;;;;;;;;;6205332;23;20047;-59
2023/06/21 06:19:02;;;;;;;9.60;8.57;;;;;;;;;;6206334;23;20528;-58
2023/06/21 06:21:57;;;;;;;11.13;7.95;;;;;;;;;;6201410;23;20031;-59
2023/06/21 06:24:51;;;;;;;10.05;7.90;;;;;;;;;;6203851;23;20020;-59
2023/06/21 06:27:45;;;;;;;8.75;7.90;;;;;;;;;;6202858;23;20030;-51
2023/06/21 06:30:32;;;;;;;8.93;7.75;;;;;;;;;;6204863;23;20032;-51
2023/06/21 06:33:26;;;;;;;8.60;7.70;;;;;;;;;;6206514;23;20031;-53
2023/06/21 06:36:13;;;;;;;9.02;7.55;;;;;;;;;;6204023;23;20020;-50
2023/06/21 06:39:07;;;;;;;10.60;7.70;;;;;;;;;;6205105;23;20017;-53
2023/06/21 06:41:54;;;;;;;8.15;7.32;;;;;;;;;;6205621;23;20021;-55
2023/06/21 06:44:50;;;;;;;10.77;7.75;;;;;;;;;;6205646;23;20083;-50
2023/06/21 06:47:35;;;;;;;12.73;8.43;;;;;;;;;;6205693;23;20544;-58
2023/06/21 06:50:29;;;;;;;9.82;8.35;;;;;;;;;;6207642;23;20483;-52
2023/06/21 06:53:23;;;;;;;8.38;7.55;;;;;;;;;;6207075;23;20303;-49
2023/06/21 06:56:17;;;;;;;8.63;7.57;;;;;;;;;;6206559;23;20078;-51
2023/06/21 06:59:11;;;;;;;8.70;7.78;;;;;;;;;;6206396;23;20075;-54
2023/06/21 07:02:05;;;;;;;8.35;7.15;;;;;;;;;;6204923;23;20028;-53
2023/06/21 07:04:59;;;;;;;8.05;7.22;;;;;;;;;;6207544;23;20029;-50
2023/06/21 07:07:54;;;;;;;10.07;7.78;;;;;;;;;;6208237;23;20474;-59
2023/06/21 07:10:53;;;;;;;11.80;6.90;;;;;;;;;;6208768;23;20071;-59
2023/06/21 07:13:48;;;;;;;10.20;7.32;;;;;;;;;;6206361;23;20048;-59
2023/06/21 07:16:35;;;;;;;8.43;7.40;;;;;;;;;;6207929;23;20075;-59
2023/06/21 07:19:29;;;;;;;7.88;6.80;;;;;;;;;;6207747;23;20039;-59
2023/06/21 07:22:16;;;;;;;8.82;7.35;;;;;;;;;;6206828;23;20051;-53
2023/06/21 07:25:10;;;;;;;10.70;7.47;;;;;;;;;;6208710;23;20021;-59
2023/06/21 07:27:57;;;;;;;10.95;7.20;;;;;;;;;;6208224;23;20025;-50
2023/06/21 07:30:51;;;;;;;9.82;7.55;;;;;;;;;;6208122;23;20024;-50
2023/06/21 07:33:38;;;;;;;10.57;7.88;;;;;;;;;;6208917;23;20024;-51
2023/06/21 07:36:36;;;;;;;8.10;7.30;;;;;;;;;;6208885;23;20020;-53
2023/06/21 07:39:23;;;;;;;12.35;7.63;;;;;;;;;;6207725;23;20021;-52
2023/06/21 07:42:22;;;;;;;8.20;7.40;;;;;;;;;;6206592;23;20347;-46
2023/06/21 07:45:15;;;;;;;7.65;6.68;;;;;;;;;;6208360;23;20424;-47
2023/06/21 07:48:03;;;;;;;10.57;7.50;;;;;;;;;;6208025;23;20031;-48
2023/06/21 07:50:57;;;;;;;8.25;7.45;;;;;;;;;;6203653;23;20021;-48
2023/06/21 07:53:44;;;;;;;11.02;8.05;;;;;;;;;;6202740;23;20039;-47
2023/06/21 07:56:38;;;;;;;9.50;7.50;;;;;;;;;;6207795;23;20036;-46
2023/06/21 07:59:25;;;;;;;45.05;9.02;;;;;;;;;;6208362;23;20029;-46
2023/06/21 08:02:18;;;;;;;10.05;8.20;;;;;;;;;;6207233;23;20025;-53
2023/06/21 08:05:13;;;;;;;12.35;7.75;;;;;;;;;;6206703;23;20024;-54
2023/06/21 08:08:01;;;;;;;8.63;7.75;;;;;;;;;;6208467;22;20020;-52
2023/06/21 08:11:00;;;;;;;8.73;7.82;;;;;;;;;;6207014;23;20072;-50
2023/06/21 08:13:47;;;;;;;11.30;8.18;;;;;;;;;;6205362;23;20075;-52
2023/06/21 08:16:42;;;;;;;9.15;7.72;;;;;;;;;;6207434;23;20020;-54
2023/06/21 08:19:30;;;;;;;10.85;8.50;;;;;;;;;;6202033;23;20591;-59
2023/06/21 08:22:24;;;;;;;9.48;8.13;;;;;;;;;;6204759;23;20024;-66
2023/06/21 08:25:11;;;;;;;9.25;8.07;;;;;;;;;;6208003;23;20423;-66
2023/06/21 08:28:05;;;;;;;14.50;8.18;;;;;;;;;;6207291;23;20374;-65
2023/06/21 08:30:52;;;;;;;15.57;9.63;;;;;;;;;;6207239;23;20028;-65
2023/06/21 08:33:46;;;;;;;13.13;9.40;;;;;;;;;;6206589;23;20025;-64
2023/06/21 08:36:33;;;;;;;10.45;9.32;;;;;;;;;;6205503;23;20017;-52
2023/06/21 08:39:27;;;;;;;11.02;9.93;;;;;;;;;;6206209;23;20071;-51
2023/06/21 08:42:14;;;;;;;10.25;9.18;;;;;;;;;;6184065;23;20028;-53
2023/06/21 08:45:08;;;;;;;10.40;9.30;;;;;;;;;;6208067;23;20025;-53
2023/06/21 08:48:00;;;;;;;11.53;9.63;;;;;;;;;;6208296;23;20028;-50
2023/06/21 08:50:52;;;;;;;10.77;9.68;;;;;;;;;;6206020;23;20024;-49
2023/06/21 08:53:49;;;;;;;19.05;10.98;;;;;;;;;;6184272;23;20517;-47
2023/06/21 08:56:53;;;;;;;27.52;11.93;;;;;;;;;;6205578;23;20024;-51
2023/06/21 08:59:49;;;;;;;11.30;10.10;;;;;;;;;;6205997;23;20021;-55
2023/06/21 09:02:52;;;;;;;13.45;11.43;;;;;;;;;;6205455;23;20129;-55
2023/06/21 09:05:53;;;;;;;16.13;12.60;;;;;;;;;;6205742;23;20028;-59
2023/06/21 09:08:54;;;;;;;13.97;10.93;;;;;;;;;;6206260;23;20562;-60
2023/06/21 09:11:48;;;;;;;14.05;11.85;;;;;;;;;;6204507;23;20024;-58
2023/06/21 09:14:42;;;;;;;14.75;12.27;;;;;;;;;;6205329;23;20046;-55
2023/06/21 09:17:30;;;;;;;13.45;12.15;;;;;;;;;;6206806;23;20100;-54
2023/06/21 09:20:28;;;;;;;17.77;12.25;;;;;;;;;;6205601;23;20031;-55
2023/06/21 09:23:13;;;;;;;15.40;11.90;;;;;;;;;;6204208;23;20024;-52
2023/06/21 09:26:10;;;;;;;15.27;12.27;;;;;;;;;;6205601;23;20025;-54
2023/06/21 09:28:58;;;;;;;14.80;13.30;;;;;;;;;;6207229;23;20080;-54
2023/06/21 09:31:52;;;;;;;14.75;12.57;;;;;;;;;;6206200;23;20024;-56
2023/06/21 09:34:39;;;;;;;16.13;13.13;;;;;;;;;;6206221;23;20431;-53
2023/06/21 09:37:33;;;;;;;15.02;12.95;;;;;;;;;;6206654;23;20020;-54
2023/06/21 09:40:20;;;;;;;16.02;14.20;;;;;;;;;;6205704;23;20024;-52
2023/06/21 09:43:15;;;;;;;19.45;13.00;;;;;;;;;;6204950;23;20083;-52
2023/06/21 09:46:03;;;;;;;19.42;13.68;;;;;;;;;;6205614;23;20097;-52
2023/06/21 09:49:07;;;;;;;14.57;13.05;;;;;;;;;;6205612;23;20021;-53
2023/06/21 09:51:59;;;;;;;16.42;14.32;;;;;;;;;;6206322;23;20082;-51
2023/06/21 09:54:56;;;;;;;16.65;14.95;;;;;;;;;;6205485;23;20070;-48
2023/06/21 09:57:43;;;;;;;17.10;14.68;;;;;;;;;;6206418;23;20469;-47
2023/06/21 10:00:38;;;;;;;22.92;14.77;;;;;;;;;;6208059;23;20025;-47
2023/06/21 10:03:27;;;;;;;18.30;15.98;;;;;;;;;;6206225;23;20516;-51
2023/06/21 10:06:28;;;;;;;17.25;15.45;;;;;;;;;;6206902;23;20020;-53
2023/06/21 10:09:21;;;;;;;16.27;14.52;;;;;;;;;;6204924;23;20024;-49
2023/06/21 10:12:22;;;;;;;18.13;16.13;;;;;;;;;;6203127;23;20548;-55
2023/06/21 10:15:12;;;;;;;17.35;15.57;;;;;;;;;;6206816;23;20454;-52
2023/06/21 10:18:09;;;;;;;19.35;15.88;;;;;;;;;;6205301;23;20025;-49
2023/06/21 10:21:00;;;;;;;17.90;16.10;;;;;;;;;;6205668;23;20052;-53
2023/06/21 10:23:55;;;;;;;17.73;15.93;;;;;;;;;;6209219;23;20481;-53
2023/06/21 10:26:44;;;;;;;20.17;15.90;;;;;;;;;;6209097;23;20021;-60
2023/06/21 10:29:39;;;;;;;18.13;15.48;;;;;;;;;;6208084;23;20122;-49
2023/06/21 10:32:26;;;;;;;;;;;;;;;;;;6204351;23;20029;-49
2023/06/21 10:35:22;;;;;;;18.33;15.82;;;;;;;;;;6209560;23;19916;-49
2023/06/21 10:38:25;;;;;;;17.73;15.23;;;;;;;;;;6209298;23;20020;-47
2023/06/21 10:41:19;;;;;;;16.75;14.85;;;;;;;;;;6207860;23;20067;-52
2023/06/21 10:44:07;;;;;;;15.77;14.27;;;;;;;;;;6207183;23;20020;-51
2023/06/21 10:47:01;;;;;;;17.73;15.02;;;;;;;;;;6206836;23;20032;-52
2023/06/21 10:50:00;;;;;;;18.55;16.45;;;;;;;;;;6207701;23;20024;-52
2023/06/21 10:52:56;;;;;;;18.60;14.63;;;;;;;;;;6207374;23;20079;-57
2023/06/21 10:55:42;;;;;;;16.73;14.73;;;;;;;;;;6206249;23;20028;-57
2023/06/21 10:58:36;;;;;;;16.80;15.02;;;;;;;;;;6205406;23;20025;-56
2023/06/21 11:01:29;;;;;;;17.45;15.73;;;;;;;;;;6205429;23;20094;-55
2023/06/21 11:04:23;;;;;;;18.70;13.80;;;;;;;;;;6204447;23;20023;-51
2023/06/21 11:07:23;;;;;;;17.13;15.32;;;;;;;;;;6207264;23;20095;-64
2023/06/21 11:10:20;;;;;;;16.63;14.98;;;;;;;;;;6205782;23;20024;-64
2023/06/21 11:13:14;;;;;;;16.77;14.32;;;;;;;;;;6209061;23;20025;-64
2023/06/21 11:16:11;;;;;;;16.85;13.90;;;;;;;;;;6207762;23;20025;-64
2023/06/21 11:19:04;;;;;;;17.67;14.82;;;;;;;;;;6205768;23;20108;-64
2023/06/21 11:21:58;;;;;;;16.05;14.35;;;;;;;;;;6207347;23;20078;-68
2023/06/21 11:25:00;;;;;;;15.90;14.10;;;;;;;;;;6205295;23;20100;-64
2023/06/21 11:28:19;;;;;;;16.80;15.00;;;;;;;;;;6207369;23;20240;-65
2023/06/21 11:31:08;;;;;;;15.35;13.73;;;;;;;;;;6204136;23;20484;-64
2023/06/21 11:34:03;;;;;;;16.52;14.52;;;;;;;;;;6207041;23;20850;-64
2023/06/21 11:36:50;;;;;;;16.05;14.40;;;;;;;;;;6206982;23;20027;-65
2023/06/21 11:39:50;;;;;;;15.63;14.02;;;;;;;;;;6206170;23;20465;-53
2023/06/21 11:42:42;;;;;;;16.38;14.77;;;;;;;;;;6189152;23;20143;-56
2023/06/21 11:45:38;;;;;;;19.00;15.00;;;;;;;;;;6207376;23;20024;-53
2023/06/21 11:48:26;;;;;;;17.80;15.90;;;;;;;;;;6183313;23;20542;-49
2023/06/21 11:51:20;;;;;;;17.67;15.75;;;;;;;;;;6206097;23;20020;-53
2023/06/21 11:54:08;;;;;;;16.60;14.95;;;;;;;;;;6207131;23;20099;-49
2023/06/21 11:57:09;;;;;;;18.73;15.65;;;;;;;;;;6207091;23;20032;-54
2023/06/21 12:00:04;;;;;;;15.93;14.32;;;;;;;;;;6186058;23;20032;-56
2023/06/21 12:02:51;;;;;;;14.88;13.25;;;;;;;;;;6207077;23;20028;-57
2023/06/21 12:05:53;;;;;;;15.77;14.23;;;;;;;;;;6206574;23;20245;-54
2023/06/21 12:08:40;;;;;;;16.63;14.82;;;;;;;;;;6206322;23;20474;-56
2023/06/21 12:11:41;;;;;;;17.58;15.55;;;;;;;;;;6203697;23;20323;-56
2023/06/21 12:14:36;;;;;;;17.60;14.00;;;;;;;;;;6206511;23;20029;-55
2023/06/21 12:17:22;;;;;;;16.02;14.35;;;;;;;;;;6208075;23;20031;-52
2023/06/21 12:20:16;;;;;;;18.33;16.38;;;;;;;;;;6207051;23;20063;-54
2023/06/21 12:23:08;;;;;;;19.17;14.73;;;;;;;;;;6207325;23;20031;-54
2023/06/21 12:26:17;;;;;;;22.38;15.60;;;;;;;;;;6187464;23;20042;-52
2023/06/21 12:29:06;;;;;;;18.10;15.88;;;;;;;;;;6207950;23;20025;-54
2023/06/21 12:32:03;;;;;;;19.65;16.33;;;;;;;;;;6207500;23;20044;-55
2023/06/21 12:34:51;;;;;;;16.45;14.85;;;;;;;;;;6206201;23;20024;-57
2023/06/21 12:37:46;;;;;;;16.77;14.95;;;;;;;;;;6206473;23;20017;-57
2023/06/21 12:40:32;;;;;;;17.38;13.75;;;;;;;;;;6201660;23;20020;-56
2023/06/21 12:43:41;;;;;;;17.00;15.23;;;;;;;;;;6202252;23;20051;-56
2023/06/21 12:46:29;;;;;;;16.02;14.43;;;;;;;;;;6202459;23;20225;-54
2023/06/21 12:49:23;;;;;;;18.23;14.90;;;;;;;;;;6207535;23;20021;-56
2023/06/21 12:52:10;;;;;;;22.30;16.75;;;;;;;;;;6208406;23;20067;-54
2023/06/21 12:55:04;;;;;;;17.73;15.93;;;;;;;;;;6207550;23;20074;-60
2023/06/21 12:57:51;;;;;;;17.35;15.40;;;;;;;;;;6203325;23;20465;-49
2023/06/21 13:00:45;;;;;;;19.80;15.35;;;;;;;;;;6202649;23;20528;-53
2023/06/21 13:03:32;;;;;;;18.60;15.13;;;;;;;;;;6205834;23;20288;-46
2023/06/21 13:06:27;;;;;;;20.48;15.50;;;;;;;;;;6203898;23;20031;-51
2023/06/21 13:09:31;;;;;;;18.40;14.85;;;;;;;;;;6202215;23;20024;-50
2023/06/21 13:12:28;;;;;;;17.23;15.43;;;;;;;;;;6203827;23;20025;-52
2023/06/21 13:15:15;;;;;;;18.45;15.38;;;;;;;;;;6207827;23;20347;-58
2023/06/21 13:18:09;;;;;;;18.45;15.63;;;;;;;;;;6206789;23;20016;-55
2023/06/21 13:21:03;;;;;;;18.65;15.57;;;;;;;;;;6207025;23;20447;-58
2023/06/21 13:23:59;;;;;;;17.73;15.50;;;;;;;;;;6204961;23;20035;-54
2023/06/21 13:26:44;;;;;;;18.17;15.52;;;;;;;;;;6203735;23;20024;-58
2023/06/21 13:29:38;;;;;;;18.77;15.88;;;;;;;;;;6204701;23;20023;-55
2023/06/21 13:32:25;;;;;;;21.83;16.60;;;;;;;;;;6201876;23;20032;-49
2023/06/21 13:35:19;;;;;;;19.25;16.02;;;;;;;;;;6204216;23;20491;-50
2023/06/21 13:38:06;;;;;;;18.30;16.30;;;;;;;;;;6206784;23;20056;-51
2023/06/21 13:41:01;;;;;;;17.50;15.68;;;;;;;;;;6207419;23;20067;-54
2023/06/21 13:43:54;;;;;;;20.35;16.27;;;;;;;;;;6207068;23;20070;-53
2023/06/21 13:46:48;;;;;;;20.48;16.70;;;;;;;;;;6206080;23;20354;-52
2023/06/21 13:49:36;;;;;;;19.30;15.50;;;;;;;;;;6205868;23;20020;-66
2023/06/21 13:52:31;;;;;;;19.52;16.17;;;;;;;;;;6204162;23;20469;-55
2023/06/21 13:55:17;;;;;;;17.43;15.63;;;;;;;;;;6206759;23;20024;-54
2023/06/21 13:58:11;;;;;;;18.75;15.40;;;;;;;;;;6207458;23;20332;-55
2023/06/21 14:00:58;;;;;;;17.85;16.05;;;;;;;;;;6201668;23;20080;-57
2023/06/21 14:03:52;;;;;;;18.63;16.73;;;;;;;;;;6205660;23;20028;-57
2023/06/21 14:06:39;;;;;;;18.95;15.15;;;;;;;;;;6202392;23;20016;-66
2023/06/21 14:09:33;;;;;;;17.55;15.70;;;;;;;;;;6201228;23;20035;-48
2023/06/21 14:12:27;;;;;;;17.35;15.65;;;;;;;;;;6200210;23;20028;-53
2023/06/21 14:15:21;;;;;;;19.10;17.10;;;;;;;;;;6202621;23;20096;-56
2023/06/21 14:18:09;;;;;;;18.75;16.48;;;;;;;;;;6201880;23;20384;-55
2023/06/21 14:21:14;;;;;;;18.98;16.70;;;;;;;;;;6206404;23;20052;-51
2023/06/21 14:24:01;;;;;;;20.27;17.38;;;;;;;;;;6205757;23;20031;-55
2023/06/21 14:26:55;;;;;;;21.30;17.90;;;;;;;;;;6205846;23;20078;-67
2023/06/21 14:29:46;;;;;;;20.73;17.40;;;;;;;;;;6205611;23;20032;-59
2023/06/21 14:32:36;;;;;;;23.88;19.35;;;;;;;;;;6206966;23;20413;-59
2023/06/21 14:35:24;;;;;;;20.98;18.15;;;;;;;;;;6204930;23;20477;-59
2023/06/21 14:38:18;;;;;;;17.48;15.68;;;;;;;;;;6205479;23;20028;-59
2023/06/21 14:41:05;;;;;;;23.08;20.58;;;;;;;;;;6207519;23;20044;-59
2023/06/21 14:43:59;;;;;;;22.15;19.13;;;;;;;;;;6206344;23;20393;-56
2023/06/21 14:46:47;;;;;;;21.38;19.15;;;;;;;;;;6204339;23;20111;-59
2023/06/21 14:49:40;;;;;;;22.92;19.35;;;;;;;;;;6205738;23;20024;-59
2023/06/21 14:52:27;;;;;;;21.13;18.65;;;;;;;;;;6203487;23;20114;-59
2023/06/21 14:55:21;;;;;;;26.95;21.67;;;;;;;;;;6204935;23;20032;-59
2023/06/21 14:58:08;;;;;;;23.30;19.08;;;;;;;;;;6205353;23;20021;-59
2023/06/21 15:01:03;;;;;;;19.45;16.67;;;;;;;;;;6205100;23;20711;-59
2023/06/21 15:03:50;;;;;;;20.10;18.00;;;;;;;;;;6205317;23;20031;-48
2023/06/21 15:06:44;;;;;;;26.13;18.20;;;;;;;;;;6206555;23;20024;-60
2023/06/21 15:09:37;;;;;;;21.95;19.02;;;;;;;;;;6204117;23;20056;-59
2023/06/21 15:12:38;;;;;;;25.27;18.25;;;;;;;;;;6207269;23;20366;-59
2023/06/21 15:15:28;;;;;;;20.75;18.60;;;;;;;;;;6207452;23;20016;-59
2023/06/21 15:18:22;;;;;;;32.63;19.85;;;;;;;;;;6207784;23;20028;-59
2023/06/21 15:21:09;;;;;;;22.92;20.50;;;;;;;;;;6207822;23;20024;-67
2023/06/21 15:24:04;;;;;;;22.33;19.98;;;;;;;;;;6208012;23;20331;-60
2023/06/21 15:26:50;;;;;;;21.75;19.38;;;;;;;;;;6207748;23;20028;-60
2023/06/21 15:29:44;;;;;;;26.63;21.02;;;;;;;;;;6205004;23;20020;-60
2023/06/21 15:32:31;;;;;;;25.48;21.13;;;;;;;;;;6206665;23;20029;-60
2023/06/21 15:35:25;;;;;;;23.98;21.20;;;;;;;;;;6207162;23;20025;-60
2023/06/21 15:38:12;;;;;;;25.13;21.10;;;;;;;;;;6206678;23;20075;-60
2023/06/21 15:41:06;;;;;;;26.63;21.63;;;;;;;;;;6206237;23;20520;-68
2023/06/21 15:44:00;;;;;;;23.92;21.55;;;;;;;;;;6206065;23;20074;-50
2023/06/21 15:46:54;;;;;;;25.33;22.65;;;;;;;;;;6208369;23;20024;-51
2023/06/21 15:49:48;;;;;;;28.67;21.60;;;;;;;;;;6206677;23;20023;-51
2023/06/21 15:52:42;;;;;;;29.23;23.55;;;;;;;;;;6206230;23;20545;-53
2023/06/21 15:55:29;;;;;;;31.90;24.20;;;;;;;;;;6206539;23;20481;-54
2023/06/21 15:58:23;;;;;;;28.85;23.50;;;;;;;;;;6207074;23;20024;-68
2023/06/21 16:01:11;;;;;;;28.23;23.67;;;;;;;;;;6205995;23;20032;-60
2023/06/21 16:04:11;;;;;;;27.52;24.63;;;;;;;;;;6207196;23;20021;-59
2023/06/21 16:07:01;;;;;;;35.22;25.65;;;;;;;;;;6201243;23;20615;-60
2023/06/21 16:10:08;;;;;;;31.88;25.10;;;;;;;;;;6206738;23;20193;-59
2023/06/21 16:13:03;;;;;;;32.45;26.52;;;;;;;;;;6206645;23;20024;-61
2023/06/21 16:15:59;;;;;;;33.45;26.27;;;;;;;;;;6208008;23;20025;-50
2023/06/21 16:18:54;;;;;;;30.85;25.98;;;;;;;;;;6207744;23;20083;-59
2023/06/21 16:21:40;;;;;;;36.03;28.05;;;;;;;;;;6206439;23;20462;-59
2023/06/21 16:24:34;;;;;;;35.00;28.40;;;;;;;;;;6207418;23;20024;-59
2023/06/21 16:27:22;;;;;;;32.08;26.40;;;;;;;;;;6207563;23;20082;-59
2023/06/21 16:30:15;;;;;;;34.10;28.20;;;;;;;;;;6206470;23;20021;-59
2023/06/21 16:33:09;;;;;;;35.88;29.75;;;;;;;;;;6208089;23;20066;-59
2023/06/21 16:36:03;;;;;;;37.20;29.80;;;;;;;;;;6204999;23;20024;-54
2023/06/21 16:38:50;;;;;;;44.22;29.42;;;;;;;;;;6202275;23;20020;-48
2023/06/21 16:41:44;;;;;;;33.45;28.80;;;;;;;;;;6207622;23;20075;-52
2023/06/21 16:44:31;;;;;;;35.63;29.70;;;;;;;;;;6202172;23;20114;-52
2023/06/21 16:47:25;;;;;;;35.47;28.98;;;;;;;;;;6205570;23;20028;-52